Time;durP1;ratioP1;P1;durP2;ratioP2;P2;SDS_P1;SDS_P2;PMS_P1;PMS_P2;Temp;Humidity;BMP_temperature;BMP_pressure;BME280_temperature;BME280_humidity;BME280_pressure;Samples;Min_cycle;Max_cycle;Signal;HPM_P1;HPM_P2
2023/01/29 00:01:15;;;;;;;10.70;6.28;;;;;;;-140.72;100.00;53235.06;6272815;22;20354;-66
2023/01/29 00:03:41;;;;;;;11.32;7.10;;;;;;;-140.72;100.00;53182.28;6273473;22;20000;-67
2023/01/29 00:06:08;;;;;;;10.35;6.85;;;;;;;-140.72;100.00;53198.53;6273411;22;20407;-67
2023/01/29 00:08:37;;;;;;;9.88;6.95;;;;;;;-140.72;100.00;53202.59;6273369;22;20033;-67
2023/01/29 00:11:07;;;;;;;11.95;7.32;;;;;;;-140.72;100.00;53218.81;6273111;22;19999;-67
2023/01/29 00:13:33;;;;;;;14.75;7.38;;;;;;;-140.72;100.00;53194.47;6274481;22;20034;-68
2023/01/29 00:16:00;;;;;;;10.50;7.53;;;;;;;-140.72;100.00;53190.41;6273199;22;20267;-68
2023/01/29 00:18:27;;;;;;;12.48;7.00;;;;;;;-140.72;100.00;53208.69;6274244;22;20011;-68
2023/01/29 00:20:52;;;;;;;8.98;5.45;;;;;;;-140.72;100.00;53190.41;6273324;22;20049;-68
2023/01/29 00:23:21;;;;;;;10.07;5.78;;;;;;;-140.72;100.00;53214.78;6273041;22;20345;-67
2023/01/29 00:25:47;;;;;;;10.70;6.45;;;;;;;-140.72;100.00;53196.50;6272951;22;20034;-68
2023/01/29 00:28:13;;;;;;;10.82;6.57;;;;;;;-140.72;100.00;53178.22;6273939;22;19995;-67
2023/01/29 00:30:39;;;;;;;11.55;6.78;;;;;;;-140.72;100.00;53216.78;6273066;22;20011;-68
2023/01/29 00:33:05;;;;;;;13.00;7.35;;;;;;;-140.72;100.00;53218.81;6273172;22;20326;-69
2023/01/29 00:35:31;;;;;;;11.02;6.63;;;;;;;-140.72;100.00;53190.41;6272583;22;19996;-67
2023/01/29 00:37:57;;;;;;;10.95;6.40;;;;;;;-140.72;100.00;53222.88;6273633;22;20015;-68
2023/01/29 00:40:23;;;;;;;10.07;6.60;;;;;;;-140.72;100.00;53178.22;6272913;22;20004;-68
2023/01/29 00:45:36;;;;;;;8.68;5.93;;;;;;;-140.72;100.00;53247.25;6273824;22;20525;-67
2023/01/29 00:48:04;;;;;;;8.85;5.55;;;;;;;-140.72;100.00;53218.81;6272530;22;20206;-68
2023/01/29 00:50:31;;;;;;;10.43;6.07;;;;;;;-140.72;100.00;53222.88;6272314;22;20079;-67
2023/01/29 00:52:57;;;;;;;11.30;7.13;;;;;;;-140.72;100.00;53231.00;6272770;22;20006;-69
2023/01/29 00:55:23;;;;;;;11.43;6.30;;;;;;;-140.72;100.00;53237.09;6273090;22;19995;-67
2023/01/29 00:57:49;;;;;;;12.82;7.05;;;;;;;-140.72;100.00;53245.22;6272855;22;20004;-68
2023/01/29 01:00:17;;;;;;;8.82;6.22;;;;;;;-140.72;100.00;53184.31;6273824;22;20004;-67
2023/01/29 01:05:27;;;;;;;10.68;7.47;;;;;;;-140.72;100.00;53198.53;6272378;22;20483;-67
2023/01/29 01:07:55;;;;;;;9.30;6.10;;;;;;;-140.72;100.00;53212.75;6272904;22;20015;-67
2023/01/29 01:10:24;;;;;;;11.35;6.63;;;;;;;-140.72;100.00;53192.44;6272743;22;20011;-66
2023/01/29 01:12:58;;;;;;;10.10;7.05;;;;;;;-140.72;100.00;53214.78;6272664;22;19999;-67
2023/01/29 01:15:28;;;;;;;11.75;6.95;;;;;;;-140.72;100.00;53200.56;6273287;22;20404;-67
2023/01/29 01:17:58;;;;;;;10.40;6.45;;;;;;;-140.72;100.00;53212.75;6272428;22;20403;-67
2023/01/29 01:20:26;;;;;;;12.73;8.50;;;;;;;-140.72;100.00;53265.50;6273124;22;20334;-67
2023/01/29 01:22:54;;;;;;;11.40;7.03;;;;;;;-140.72;100.00;53204.63;6273221;22;20053;-67
2023/01/29 01:25:24;;;;;;;14.73;7.57;;;;;;;-140.72;100.00;53196.50;6271070;22;20015;-67
2023/01/29 01:27:54;;;;;;;9.68;6.57;;;;;;;-140.72;100.00;53222.88;6272877;22;20019;-67
2023/01/29 01:30:20;;;;;;;12.93;6.13;;;;;;;-140.72;100.00;53222.88;6273282;22;20045;-67
2023/01/29 01:32:46;;;;;;;9.93;6.45;;;;;;;-140.72;100.00;53235.06;6271517;22;20004;-67
2023/01/29 01:35:13;;;;;;;12.25;7.55;;;;;;;-140.72;100.00;53222.88;6273180;22;19995;-67
2023/01/29 01:37:39;;;;;;;8.85;6.25;;;;;;;-140.72;100.00;53194.47;6272741;22;20084;-67
2023/01/29 01:40:11;;;;;;;9.75;7.03;;;;;;;-140.72;100.00;53178.22;6271878;22;20323;-68
2023/01/29 01:42:38;;;;;;;14.65;7.97;;;;;;;-140.72;100.00;53233.03;6271995;22;20015;-68
2023/01/29 01:45:06;;;;;;;10.68;7.35;;;;;;;-140.72;100.00;53206.66;6272568;22;20027;-68
2023/01/29 01:47:42;;;;;;;13.60;6.68;;;;;;;-140.72;100.00;53251.31;6272351;22;20049;-67
2023/01/29 01:50:17;;;;;;;11.95;8.10;;;;;;;-140.72;100.00;53198.53;6271918;22;20006;-67
2023/01/29 01:52:50;;;;;;;13.57;8.30;;;;;;;-140.72;100.00;53231.00;6273316;22;20356;-67
2023/01/29 01:55:19;;;;;;;9.98;6.22;;;;;;;-140.72;100.00;53206.66;6272391;22;20154;-67
2023/01/29 01:57:48;;;;;;;11.75;6.85;;;;;;;-140.72;100.00;53218.81;6272892;22;19999;-67
2023/01/29 02:00:16;;;;;;;9.57;5.40;;;;;;;-140.72;100.00;53202.59;6271923;22;20003;-67
2023/01/29 02:11:47;;;;;;;13.60;7.85;;;;;;;-140.72;100.00;53226.94;6272544;22;20015;-67
2023/01/29 02:14:12;;;;;;;13.30;7.00;;;;;;;-140.72;100.00;53208.69;6272117;22;20058;-67
2023/01/29 02:16:38;;;;;;;8.40;6.32;;;;;;;-140.72;100.00;53210.72;6273254;22;20000;-67
2023/01/29 02:19:10;;;;;;;9.35;6.75;;;;;;;-140.72;100.00;53253.31;6272069;22;20470;-67
2023/01/29 02:21:48;;;;;;;11.35;7.47;;;;;;;-140.72;100.00;53228.97;6271466;22;20000;-68
2023/01/29 02:24:51;;;;;;;12.77;7.43;;;;;;;-140.72;100.00;53210.72;6273133;22;20011;-67
2023/01/29 02:27:24;;;;;;;10.73;7.05;;;;;;;-140.72;100.00;53208.69;6272440;22;20023;-67
2023/01/29 02:30:12;;;;;;;7.80;6.25;;;;;;;-140.72;100.00;53194.47;6273464;22;20007;-67
2023/01/29 02:33:06;;;;;;;12.88;6.95;;;;;;;-140.72;100.00;53164.03;6274520;22;19995;-67
2023/01/29 02:35:43;;;;;;;14.32;7.97;;;;;;;-140.72;100.00;53186.34;6273712;22;19995;-67
2023/01/29 02:38:30;;;;;;;12.00;7.57;;;;;;;-140.72;100.00;53239.13;6273855;22;20050;-66
2023/01/29 02:40:59;;;;;;;10.45;8.32;;;;;;;-140.72;100.00;53190.41;6274299;22;20004;-67
2023/01/29 02:43:53;;;;;;;13.15;9.60;;;;;;;-140.72;100.00;53188.38;6273332;22;20006;-67
2023/01/29 02:46:46;;;;;;;11.27;7.78;;;;;;;-140.72;100.00;53200.56;6274498;22;20441;-66
2023/01/29 02:49:20;;;;;;;12.48;8.60;;;;;;;-140.72;100.00;53222.88;6273599;22;20310;-67
2023/01/29 02:51:58;;;;;;;10.63;7.95;;;;;;;-140.72;100.00;53214.78;6274340;22;20031;-67
2023/01/29 02:54:30;;;;;;;13.45;8.32;;;;;;;-140.72;100.00;53233.03;6274321;22;20004;-67
2023/01/29 02:56:59;;;;;;;10.63;7.63;;;;;;;-140.72;100.00;53198.53;6273877;22;20004;-67
2023/01/29 02:59:35;;;;;;;11.90;8.43;;;;;;;-140.72;100.00;53170.13;6274444;22;20000;-66
2023/01/29 03:02:16;;;;;;;11.95;8.10;;;;;;;-140.72;100.00;53239.13;6274407;22;20033;-66
2023/01/29 03:04:52;;;;;;;14.48;8.90;;;;;;;-140.72;100.00;53210.72;6274196;22;20003;-68
2023/01/29 03:07:44;;;;;;;13.02;7.93;;;;;;;-140.72;100.00;53228.97;6273655;22;20472;-68
2023/01/29 03:10:23;;;;;;;12.90;8.88;;;;;;;-140.72;100.00;53196.50;6274028;22;19995;-66
2023/01/29 03:12:55;;;;;;;12.70;9.25;;;;;;;-140.72;100.00;53251.31;6273460;22;20374;-68
2023/01/29 03:15:29;;;;;;;12.82;8.27;;;;;;;-140.72;100.00;53233.03;6274697;22;20373;-68
2023/01/29 03:18:17;;;;;;;12.18;9.43;;;;;;;-140.72;100.00;53168.09;6272327;22;20004;-66
2023/01/29 03:20:52;;;;;;;16.92;9.27;;;;;;;-140.72;100.00;53241.16;6274496;22;20003;-68
2023/01/29 03:23:25;;;;;;;15.85;8.77;;;;;;;-140.72;100.00;53192.44;6274145;22;19999;-67
2023/01/29 03:34:23;;;;;;;13.40;9.10;;;;;;;-140.72;100.00;53212.75;6273336;22;20150;-68
2023/01/29 03:37:02;;;;;;;17.73;8.90;;;;;;;-140.72;100.00;53218.81;6273277;22;20378;-66
2023/01/29 03:39:28;;;;;;;14.20;8.80;;;;;;;-140.72;100.00;53218.81;6273012;22;20324;-67
2023/01/29 03:42:04;;;;;;;15.32;9.32;;;;;;;-140.72;100.00;53190.41;6273773;22;20022;-67
2023/01/29 03:44:39;;;;;;;14.30;8.63;;;;;;;-140.72;100.00;53206.66;6272730;22;20018;-67
2023/01/29 03:47:34;;;;;;;13.70;9.98;;;;;;;-140.72;100.00;53216.78;6272875;22;19999;-67
2023/01/29 03:50:11;;;;;;;13.88;9.07;;;;;;;-140.72;100.00;53210.72;6252528;22;20084;-67
2023/01/29 03:52:42;;;;;;;14.65;8.63;;;;;;;-140.72;100.00;53200.56;6273171;22;20054;-67
2023/01/29 03:55:16;;;;;;;15.48;9.10;;;;;;;-140.72;100.00;53214.78;6273287;22;19996;-67
2023/01/29 03:57:52;;;;;;;16.35;9.80;;;;;;;-140.72;100.00;53224.91;6274097;22;20004;-67
2023/01/29 04:00:26;;;;;;;13.35;8.95;;;;;;;-140.72;100.00;53239.13;6272803;22;20006;-67
2023/01/29 04:03:13;;;;;;;12.02;8.10;;;;;;;-140.72;100.00;53188.38;6273667;22;19996;-66
2023/01/29 04:05:57;;;;;;;13.20;8.35;;;;;;;-140.72;100.00;53253.31;6274522;22;20011;-68
2023/01/29 04:08:30;;;;;;;14.40;9.00;;;;;;;-140.72;100.00;53212.75;6272979;22;20057;-68
2023/01/29 04:11:01;;;;;;;21.02;12.40;;;;;;;-140.72;100.00;53216.78;6274708;22;20030;-68
2023/01/29 04:13:32;;;;;;;18.08;9.63;;;;;;;-140.72;100.00;53235.06;6283749;22;20310;-68
2023/01/29 04:16:05;;;;;;;13.88;9.07;;;;;;;-140.72;100.00;53231.00;6289246;22;20004;-69
2023/01/29 04:18:31;;;;;;;16.55;10.35;;;;;;;-140.72;100.00;53218.81;6288799;22;20000;-68
2023/01/29 04:20:57;;;;;;;15.38;9.50;;;;;;;-140.72;100.00;53192.44;6283139;22;20103;-66
2023/01/29 04:23:25;;;;;;;18.73;11.07;;;;;;;-140.72;100.00;53224.91;6275056;22;19999;-67
2023/01/29 04:26:10;;;;;;;10.98;8.43;;;;;;;-140.72;100.00;53162.00;6273607;22;20006;-67
2023/01/29 04:29:03;;;;;;;18.08;10.50;;;;;;;-140.72;100.00;53210.72;6279109;22;20010;-68
2023/01/29 04:31:37;;;;;;;12.02;9.35;;;;;;;-140.72;100.00;53235.06;6282885;22;20418;-66
2023/01/29 04:34:28;;;;;;;19.02;10.70;;;;;;;-140.72;100.00;53218.81;6274489;22;20004;-66
2023/01/29 04:37:36;;;;;;;11.95;8.77;;;;;;;-140.72;100.00;53218.81;6273397;22;20006;-67
2023/01/29 04:40:27;;;;;;;13.85;9.60;;;;;;;-140.72;100.00;53269.56;6230264;23;20362;-67
2023/01/29 04:42:53;;;;;;;14.20;9.40;;;;;;;-140.72;100.00;53204.63;6242096;23;20007;-68
2023/01/29 04:46:00;;;;;;;14.40;8.98;;;;;;;-140.72;100.00;53218.81;6242786;23;20406;-67
2023/01/29 04:48:37;;;;;;;15.00;9.63;;;;;;;-140.72;100.00;53237.09;6242792;23;20326;-68
2023/01/29 04:51:08;;;;;;;11.82;7.80;;;;;;;-140.72;100.00;53239.13;6241868;23;20019;-68
2023/01/29 04:53:54;;;;;;;14.68;9.95;;;;;;;-140.72;100.00;53194.47;6242526;23;20178;-67
2023/01/29 04:56:33;;;;;;;11.73;8.25;;;;;;;-140.72;100.00;53218.81;6241603;23;20053;-69
2023/01/29 04:59:05;;;;;;;17.63;10.40;;;;;;;-140.72;100.00;53237.09;6242940;23;20075;-67
2023/01/29 05:01:33;;;;;;;12.00;8.98;;;;;;;-140.72;100.00;53218.81;6242367;23;20031;-69
2023/01/29 05:04:07;;;;;;;13.35;9.07;;;;;;;-140.72;100.00;53235.06;6241511;23;20008;-67
2023/01/29 05:06:35;;;;;;;14.18;9.50;;;;;;;-140.72;100.00;53180.25;6242561;23;20015;-69
2023/01/29 05:09:04;;;;;;;13.73;9.30;;;;;;;-140.72;100.00;53228.97;6242651;23;20000;-69
2023/01/29 05:11:32;;;;;;;14.93;8.38;;;;;;;-140.72;100.00;53241.16;6241151;23;19996;-69
2023/01/29 05:13:58;;;;;;;14.30;9.85;;;;;;;-140.72;100.00;53198.53;6241921;23;20049;-66
2023/01/29 05:16:40;;;;;;;15.60;9.40;;;;;;;-140.72;100.00;53188.38;6241668;23;20011;-67
2023/01/29 05:19:10;;;;;;;14.82;10.02;;;;;;;-140.72;100.00;53198.53;6241130;23;20000;-67
2023/01/29 05:21:36;;;;;;;;;;;;;;;-140.72;100.00;53228.97;6242818;23;20004;-67
2023/01/29 05:24:20;;;;;;;14.00;8.88;;;;;;;-140.72;100.00;53226.94;6241073;23;19970;-66
2023/01/29 05:29:31;;;;;;;18.40;10.55;;;;;;;-140.72;100.00;53198.53;6242150;23;20200;-66
2023/01/29 05:31:57;;;;;;;12.50;7.57;;;;;;;-140.72;100.00;53206.66;6241563;23;20004;-68
2023/01/29 05:34:23;;;;;;;12.20;8.93;;;;;;;-140.72;100.00;53206.66;6241708;23;20023;-67
2023/01/29 05:36:48;;;;;;;17.02;8.90;;;;;;;-140.72;100.00;53239.13;6241458;23;20054;-67
2023/01/29 05:39:14;;;;;;;13.60;8.40;;;;;;;-140.72;100.00;53198.53;6259220;22;20482;-67
2023/01/29 05:41:39;;;;;;;13.40;9.02;;;;;;;-140.72;100.00;53186.34;6272618;22;20014;-67
2023/01/29 05:44:05;;;;;;;15.25;9.52;;;;;;;-140.72;100.00;53214.78;6271111;22;20011;-68
2023/01/29 05:46:30;;;;;;;14.88;8.80;;;;;;;-140.72;100.00;53190.41;6271222;22;20029;-68
2023/01/29 05:48:56;;;;;;;15.32;8.50;;;;;;;-140.72;100.00;53188.38;6272340;22;20003;-69
2023/01/29 05:51:21;;;;;;;15.18;8.23;;;;;;;-140.72;100.00;53218.81;6272689;22;20014;-68
2023/01/29 05:53:47;;;;;;;16.23;9.68;;;;;;;-140.72;100.00;53186.34;6270411;22;19996;-69
2023/01/29 05:56:12;;;;;;;13.45;9.38;;;;;;;-140.72;100.00;53180.25;6272192;22;20375;-70
2023/01/29 05:58:37;;;;;;;12.07;8.55;;;;;;;-140.72;100.00;53182.28;6271448;22;20008;-69
2023/01/29 06:01:17;;;;;;;15.35;8.98;;;;;;;-140.72;100.00;53198.53;6270928;22;20007;-68
2023/01/29 06:03:43;;;;;;;14.70;9.65;;;;;;;-140.72;100.00;53259.41;6271953;22;20006;-67
2023/01/29 06:06:09;;;;;;;16.92;9.55;;;;;;;-140.72;100.00;53188.38;6270118;22;20000;-66
2023/01/29 06:08:34;;;;;;;16.48;9.65;;;;;;;-140.72;100.00;53214.78;6271975;22;20004;-68
2023/01/29 06:11:00;;;;;;;14.63;9.07;;;;;;;-140.72;100.00;53210.72;6272108;22;20048;-68
2023/01/29 06:13:25;;;;;;;15.27;9.15;;;;;;;-140.72;100.00;53210.72;6272141;22;19999;-67
2023/01/29 06:15:51;;;;;;;13.25;8.65;;;;;;;-140.72;100.00;53212.75;6271978;22;20235;-69
2023/01/29 06:18:16;;;;;;;13.13;9.20;;;;;;;-140.72;100.00;53231.00;6272186;22;20004;-67
2023/01/29 06:20:41;;;;;;;13.63;8.93;;;;;;;-140.72;100.00;53194.47;6271284;22;20003;-67
2023/01/29 06:23:07;;;;;;;14.60;8.82;;;;;;;-140.72;100.00;53206.66;6271630;22;20010;-69
2023/01/29 06:25:32;;;;;;;12.13;9.52;;;;;;;-140.72;100.00;53235.06;6272120;22;20000;-68
2023/01/29 06:27:58;;;;;;;16.33;8.82;;;;;;;-140.72;100.00;53196.50;6271332;22;20049;-68
2023/01/29 06:30:23;;;;;;;14.63;9.27;;;;;;;-140.72;100.00;53202.59;6272117;22;20073;-67
2023/01/29 06:32:48;;;;;;;14.52;8.50;;;;;;;-140.72;100.00;53204.63;6271946;22;20000;-68
2023/01/29 06:35:14;;;;;;;15.02;9.60;;;;;;;-140.72;100.00;53174.19;6271199;22;20410;-67
2023/01/29 06:37:39;;;;;;;15.95;10.57;;;;;;;-140.72;100.00;53184.31;6272349;22;20010;-68
2023/01/29 06:40:05;;;;;;;11.95;8.82;;;;;;;-140.72;100.00;53243.19;6272233;22;20304;-68
2023/01/29 06:42:31;;;;;;;10.88;8.95;;;;;;;-140.72;100.00;53198.53;6270865;22;20088;-69
2023/01/29 06:44:56;;;;;;;10.90;7.97;;;;;;;-140.72;100.00;53251.31;6271666;22;20007;-69
2023/01/29 06:47:23;;;;;;;12.52;8.95;;;;;;;-140.72;100.00;53214.78;6271968;22;20000;-69
2023/01/29 06:49:48;;;;;;;15.50;10.90;;;;;;;-140.72;100.00;53186.34;6271356;22;20015;-68
2023/01/29 06:52:14;;;;;;;17.27;9.27;;;;;;;-140.72;100.00;53210.72;6272056;22;20414;-68
2023/01/29 06:54:39;;;;;;;14.88;10.30;;;;;;;-140.72;100.00;53200.56;6271927;22;20410;-68
2023/01/29 06:57:05;;;;;;;16.45;10.50;;;;;;;-140.72;100.00;53210.72;6270557;22;20442;-68
2023/01/29 06:59:30;;;;;;;11.82;8.63;;;;;;;-140.72;100.00;53194.47;6271900;22;20070;-68
2023/01/29 07:01:56;;;;;;;12.60;9.02;;;;;;;-140.72;100.00;53228.97;6271539;22;20056;-67
2023/01/29 07:04:21;;;;;;;17.30;9.45;;;;;;;-140.72;100.00;53198.53;6271079;22;20110;-67
2023/01/29 07:06:46;;;;;;;14.25;9.93;;;;;;;-140.72;100.00;53202.59;6271302;22;20007;-69
2023/01/29 07:09:15;;;;;;;17.80;10.20;;;;;;;-140.72;100.00;53192.44;6271719;22;20006;-69
2023/01/29 07:11:40;;;;;;;14.65;9.98;;;;;;;-140.72;100.00;53196.50;6271338;22;20011;-67
2023/01/29 07:14:06;;;;;;;15.68;10.30;;;;;;;-140.72;100.00;53178.22;6272418;22;20086;-67
2023/01/29 07:16:32;;;;;;;11.30;8.18;;;;;;;-140.72;100.00;53210.72;6272895;22;20003;-68
2023/01/29 07:18:57;;;;;;;12.43;9.30;;;;;;;-140.72;100.00;53206.66;6272571;22;20426;-67
2023/01/29 07:21:23;;;;;;;12.98;8.75;;;;;;;-140.72;100.00;53220.84;6271294;22;20038;-67
2023/01/29 07:23:48;;;;;;;17.13;10.93;;;;;;;-140.72;100.00;53218.81;6272829;22;20000;-67
2023/01/29 07:26:14;;;;;;;13.75;9.15;;;;;;;-140.72;100.00;53235.06;6273634;22;20034;-68
2023/01/29 07:28:40;;;;;;;13.35;9.32;;;;;;;-140.72;100.00;53206.66;6273582;22;20010;-67
2023/01/29 07:31:06;;;;;;;10.70;8.23;;;;;;;-140.72;100.00;53202.59;6272445;22;20007;-69
2023/01/29 07:33:33;;;;;;;12.52;9.10;;;;;;;-140.72;100.00;53186.34;6271308;22;19996;-67
2023/01/29 07:35:58;;;;;;;13.85;10.32;;;;;;;-140.72;100.00;53192.44;6271994;22;20003;-67
2023/01/29 07:38:24;;;;;;;11.55;7.90;;;;;;;-140.72;100.00;53208.69;6271609;22;20014;-68
2023/01/29 07:40:51;;;;;;;16.27;10.32;;;;;;;-140.72;100.00;53186.34;6273596;22;20004;-68
2023/01/29 07:43:17;;;;;;;10.23;7.75;;;;;;;-140.72;100.00;53210.72;6273154;22;20011;-67
2023/01/29 07:45:42;;;;;;;13.15;9.55;;;;;;;-140.72;100.00;53235.06;6272656;22;20008;-67
2023/01/29 07:48:11;;;;;;;14.57;10.50;;;;;;;-140.72;100.00;53212.75;6273552;22;20000;-68
2023/01/29 07:50:37;;;;;;;14.25;9.95;;;;;;;-140.72;100.00;53208.69;6273648;22;20010;-68
2023/01/29 07:53:02;;;;;;;14.77;8.00;;;;;;;-140.72;100.00;53178.22;6272284;22;19999;-68
2023/01/29 07:55:28;;;;;;;13.85;8.85;;;;;;;-140.72;100.00;53214.78;6273671;22;20318;-67
2023/01/29 07:57:58;;;;;;;12.32;8.55;;;;;;;-140.72;100.00;53235.06;6273322;22;20008;-67
2023/01/29 08:00:24;;;;;;;15.48;9.80;;;;;;;-140.72;100.00;53190.41;6272503;22;20310;-67
2023/01/29 08:02:49;;;;;;;14.02;8.90;;;;;;;-140.72;100.00;53182.28;6272598;22;20000;-69
2023/01/29 08:05:15;;;;;;;15.10;10.07;;;;;;;-140.72;100.00;53224.91;6273385;22;20343;-67
2023/01/29 08:07:40;;;;;;;15.25;9.82;;;;;;;-140.72;100.00;53243.19;6271759;22;20084;-69
2023/01/29 08:10:06;;;;;;;18.25;11.27;;;;;;;-140.72;100.00;53202.59;6272975;22;20079;-67
2023/01/29 08:12:31;;;;;;;13.80;9.35;;;;;;;-140.72;100.00;53192.44;6272520;22;20087;-67
2023/01/29 08:14:57;;;;;;;15.23;9.82;;;;;;;-140.72;100.00;53210.72;6272188;22;19995;-68
2023/01/29 08:17:22;;;;;;;13.98;9.02;;;;;;;-140.72;100.00;53214.78;6272528;22;20019;-67
2023/01/29 08:19:47;;;;;;;13.23;9.32;;;;;;;-140.72;100.00;53235.06;6271170;22;20087;-67
2023/01/29 08:22:15;;;;;;;13.63;9.27;;;;;;;-140.72;100.00;53157.94;6272247;22;20004;-70
2023/01/29 08:24:40;;;;;;;16.58;8.85;;;;;;;-140.72;100.00;53194.47;6272462;22;20398;-68
2023/01/29 08:27:06;;;;;;;14.82;9.40;;;;;;;-140.72;100.00;53172.16;6272113;22;20039;-68
2023/01/29 08:29:31;;;;;;;13.43;8.60;;;;;;;-140.72;100.00;53206.66;6272371;22;20447;-68
2023/01/29 08:31:57;;;;;;;13.93;9.43;;;;;;;-140.72;100.00;53186.34;6272081;22;19995;-67
2023/01/29 08:34:22;;;;;;;13.50;9.00;;;;;;;-140.72;100.00;53228.97;6272240;22;19996;-67
2023/01/29 08:36:47;;;;;;;15.05;10.55;;;;;;;-140.72;100.00;53194.47;6273062;22;20003;-67
2023/01/29 08:39:13;;;;;;;17.45;10.02;;;;;;;-140.72;100.00;53206.66;6273392;22;20018;-67
2023/01/29 08:41:38;;;;;;;18.02;10.07;;;;;;;-140.72;100.00;53182.28;6272033;22;20000;-68
2023/01/29 08:44:04;;;;;;;16.85;9.82;;;;;;;-140.72;100.00;53170.13;6272706;22;20506;-69
2023/01/29 08:46:30;;;;;;;16.60;10.55;;;;;;;-140.72;100.00;53226.94;6272948;22;20011;-67
2023/01/29 08:48:56;;;;;;;13.10;8.73;;;;;;;-140.72;100.00;53190.41;6272413;22;20003;-68
2023/01/29 08:51:23;;;;;;;15.00;9.10;;;;;;;-140.72;100.00;53210.72;6273024;22;20006;-67
2023/01/29 08:53:49;;;;;;;18.52;9.23;;;;;;;-140.72;100.00;53202.59;6272861;22;20003;-67
2023/01/29 08:56:15;;;;;;;13.98;9.18;;;;;;;-140.72;100.00;53186.34;6272768;22;19995;-67
2023/01/29 08:58:41;;;;;;;13.95;9.32;;;;;;;-140.72;100.00;53208.69;6272591;22;19995;-68
2023/01/29 09:01:08;;;;;;;10.68;8.32;;;;;;;-140.72;100.00;53178.22;6272830;22;20430;-67
2023/01/29 09:03:34;;;;;;;13.02;9.43;;;;;;;-140.72;100.00;53166.06;6271971;22;19999;-68
2023/01/29 09:05:59;;;;;;;14.95;8.85;;;;;;;-140.72;100.00;53218.81;6272353;22;20087;-67
2023/01/29 09:08:25;;;;;;;14.57;10.48;;;;;;;-140.72;100.00;53210.72;6272406;22;20000;-70
2023/01/29 09:10:50;;;;;;;13.63;9.75;;;;;;;-140.72;100.00;53182.28;6272227;22;20073;-67
2023/01/29 09:13:16;;;;;;;12.18;8.40;;;;;;;-140.72;100.00;53180.25;6272482;22;20357;-67
2023/01/29 09:15:41;;;;;;;13.60;9.60;;;;;;;-140.72;100.00;53178.22;6272588;22;19999;-67
2023/01/29 09:18:07;;;;;;;11.30;8.68;;;;;;;-140.72;100.00;53192.44;6271625;22;19997;-68
2023/01/29 09:20:32;;;;;;;16.10;10.32;;;;;;;-140.72;100.00;53194.47;6271992;22;20029;-69
2023/01/29 09:23:06;;;;;;;14.43;9.02;;;;;;;-140.72;100.00;53166.06;6271479;22;20046;-68
2023/01/29 09:25:32;;;;;;;13.65;9.82;;;;;;;-140.72;100.00;53172.16;6272548;22;20122;-68
2023/01/29 09:27:57;;;;;;;12.90;8.30;;;;;;;-140.72;100.00;53159.97;6272085;22;20035;-67
2023/01/29 09:30:22;;;;;;;13.15;8.68;;;;;;;-140.72;100.00;53170.13;6271632;22;20010;-67
2023/01/29 09:32:48;;;;;;;17.75;10.15;;;;;;;-140.72;100.00;53125.47;6272397;22;20077;-67
2023/01/29 09:35:13;;;;;;;11.10;9.02;;;;;;;-140.72;100.00;53170.13;6272795;22;20027;-67
2023/01/29 09:37:38;;;;;;;16.90;10.95;;;;;;;-140.72;100.00;53198.53;6271657;22;20368;-67
2023/01/29 09:40:05;;;;;;;15.70;11.07;;;;;;;-140.72;100.00;53186.34;6271537;22;20008;-67
2023/01/29 09:42:35;;;;;;;13.25;10.02;;;;;;;-140.72;100.00;53162.00;6272576;22;20000;-69
2023/01/29 09:45:23;;;;;;;15.18;10.93;;;;;;;-140.72;100.00;53178.22;6271444;22;20322;-67
2023/01/29 09:47:50;;;;;;;14.63;10.05;;;;;;;-140.72;100.00;53149.81;6271956;22;20039;-69
2023/01/29 09:50:40;;;;;;;14.20;9.82;;;;;;;-140.72;100.00;53143.72;6273131;22;20079;-67
2023/01/29 09:53:21;;;;;;;16.77;10.15;;;;;;;-140.72;100.00;53166.06;6249888;22;20426;-68
2023/01/29 09:55:55;;;;;;;14.48;10.70;;;;;;;-140.72;100.00;53172.16;6272594;22;20004;-68
2023/01/29 09:58:38;;;;;;;17.33;11.75;;;;;;;-140.72;100.00;53218.81;6270881;22;20000;-70
2023/01/29 10:01:23;;;;;;;19.15;12.35;;;;;;;-140.72;100.00;53170.13;6272833;22;20023;-68
2023/01/29 10:04:12;;;;;;;11.65;9.40;;;;;;;-140.72;100.00;53192.44;6272490;22;20070;-68
2023/01/29 10:06:53;;;;;;;17.48;10.77;;;;;;;-140.72;100.00;53141.69;6272053;22;20767;-69
2023/01/29 10:09:39;;;;;;;17.73;12.77;;;;;;;-140.72;100.00;53145.75;6271368;22;20429;-69
2023/01/29 10:12:26;;;;;;;21.73;10.60;;;;;;;-140.72;100.00;53153.88;6271636;22;20014;-68
2023/01/29 10:15:10;;;;;;;14.30;9.88;;;;;;;-140.72;100.00;53182.28;6271414;22;19996;-68
2023/01/29 10:17:48;;;;;;;14.65;9.07;;;;;;;-140.72;100.00;53168.09;6272170;22;20390;-68
2023/01/29 10:20:45;;;;;;;18.42;10.10;;;;;;;-140.72;100.00;53166.06;6271682;22;20011;-69
2023/01/29 10:23:16;;;;;;;15.77;11.63;;;;;;;-140.72;100.00;53172.16;6272069;22;19995;-69
2023/01/29 10:25:44;;;;;;;15.95;9.88;;;;;;;-140.72;100.00;53153.88;6272222;22;20481;-67
2023/01/29 10:28:24;;;;;;;15.00;9.23;;;;;;;-140.72;100.00;53180.25;6271667;22;20070;-68
2023/01/29 10:30:53;;;;;;;;;;;;;;;-140.72;100.00;53153.88;6272275;22;20516;-68
2023/01/29 10:33:48;;;;;;;15.10;11.27;;;;;;;-140.72;100.00;53166.06;6271070;22;19903;-69
2023/01/29 10:36:19;;;;;;;21.75;11.07;;;;;;;-140.72;100.00;53164.03;6269072;22;20039;-70
2023/01/29 10:38:47;;;;;;;17.20;10.45;;;;;;;-140.72;100.00;53178.22;6271778;22;20011;-68
2023/01/29 10:41:15;;;;;;;19.10;11.20;;;;;;;-140.72;100.00;53176.22;6271075;22;20003;-68
2023/01/29 10:44:27;;;;;;;13.77;10.15;;;;;;;-140.72;100.00;53186.34;6272508;22;20003;-69
2023/01/29 10:47:04;;;;;;;19.05;11.77;;;;;;;-140.72;100.00;53198.53;6235276;22;20004;-69
2023/01/29 10:49:48;;;;;;;15.07;9.93;;;;;;;-140.72;100.00;53166.06;6272106;22;20053;-67
2023/01/29 10:52:41;;;;;;;17.83;11.68;;;;;;;-140.72;100.00;53200.56;6273434;22;20299;-68
2023/01/29 10:55:44;;;;;;;15.13;10.48;;;;;;;-140.72;100.00;53159.97;6270291;22;20149;-67
2023/01/29 10:58:21;;;;;;;18.08;11.68;;;;;;;-140.72;100.00;53127.50;6205540;22;20018;-67
2023/01/29 11:00:51;;;;;;;18.85;11.32;;;;;;;-140.72;100.00;53190.41;6273802;22;20368;-66
2023/01/29 11:03:20;;;;;;;17.20;11.70;;;;;;;-140.72;100.00;53190.41;6271708;22;20000;-68
2023/01/29 11:06:00;;;;;;;20.45;12.18;;;;;;;-140.72;100.00;53180.25;6273707;22;20015;-67
2023/01/29 11:08:33;;;;;;;17.90;11.70;;;;;;;-140.72;100.00;53182.28;6272312;22;20003;-70
2023/01/29 11:11:14;;;;;;;16.45;11.77;;;;;;;-140.72;100.00;53176.22;6272104;22;20425;-68
2023/01/29 11:14:05;;;;;;;18.30;11.65;;;;;;;-140.72;100.00;53200.56;6270454;22;20011;-69
2023/01/29 11:16:43;;;;;;;16.60;9.65;;;;;;;-140.72;100.00;53198.53;6270206;22;20000;-73
2023/01/29 11:19:09;;;;;;;17.08;11.55;;;;;;;-140.72;100.00;53157.94;6273288;22;20351;-69
2023/01/29 11:21:56;;;;;;;16.92;11.82;;;;;;;-140.72;100.00;53151.84;6274080;22;20509;-69
2023/01/29 11:24:22;;;;;;;14.13;9.95;;;;;;;-140.72;100.00;53182.28;6271686;22;20402;-68
2023/01/29 11:26:49;;;;;;;13.55;10.15;;;;;;;-140.72;100.00;53123.44;6273483;22;20004;-68
2023/01/29 11:29:38;;;;;;;18.35;11.32;;;;;;;-140.72;100.00;53198.53;6273874;22;20003;-68
2023/01/29 11:32:07;;;;;;;16.80;10.48;;;;;;;-140.72;100.00;53182.28;6273224;22;20065;-68
2023/01/29 11:34:32;;;;;;;13.13;10.10;;;;;;;-140.72;100.00;53129.53;6272711;22;20004;-67
2023/01/29 11:37:03;;;;;;;14.07;10.55;;;;;;;-140.72;100.00;53168.09;6271722;22;20061;-69
2023/01/29 11:39:31;;;;;;;18.05;10.85;;;;;;;-140.72;100.00;53168.09;6272839;22;20006;-68
2023/01/29 11:41:59;;;;;;;14.63;9.65;;;;;;;-140.72;100.00;53141.69;6272412;22;20011;-68
2023/01/29 11:44:29;;;;;;;18.40;11.52;;;;;;;-140.72;100.00;53198.53;6271900;22;20314;-68
2023/01/29 11:46:55;;;;;;;;;;;;;;;-140.72;100.00;53157.94;6273101;22;20178;-67